KACV/ACV METAR and TAF weather

Enter ICAO airport designator
Station Type Date Time Source
KACV METAR 2022/11/27 07:53 UTC NOAA

KACV 270753Z AUTO 08004KT 7SM OVC005 06/05 A3020 RMK AO2 SLP233 T00610050 401440033 $


Station Type Date Time Source
KACV Decoded METAR 2022/11/27 07:53 UTC NOAA

ARCATA/EUREKA ARCATA AIRPORT, CA, United States (KACV) 40-59N 124-06W 67M
Nov 27, 2022 - 02:53 AM EST / 2022.11.27 0753 UTC
Wind: from the E (080 degrees) at 5 MPH (4 KT):0
Visibility: 7 mile(s):0
Sky conditions: overcast
Temperature: 43.0 F (6.1 C)
Dew Point: 41.0 F (5.0 C)
Relative Humidity: 92%
Pressure (altimeter): 30.2 in. Hg (1022 hPa)
ob: KACV 270753Z AUTO 08004KT 7SM OVC005 06/05 A3020 RMK AO2 SLP233 T00610050 401440033
cycle: 8

Station Type Date Time Source
KACV TAF 2022/11/27 06:33 UTC NOAA

TAF KACV 270531Z 2706/2806 04004KT 5SM BR FEW007
TEMPO 2708/2712 1 1/2SM BR SCT007
FM271700 32006KT 6SM HZ SCT100
FM280000 34005KT 6SM HZ BKN050 OVC070
FM280200 01003KT 4SM BR SCT008 BKN015 OVC040

Example: see airport list